VQPR Airport Information

Runway Information
Runway 15 Length 6445 ft width 95 ft
Elevation 7355 ft Threshold 0 ft Heading 151
Runway 33 Length 6445 ft Width 95 ft
Elevation 7328 ft Threshold 0 ft Heading 331
Airport Frequencies
Airport Navaids
Type NDB Name Paro Frequency 410 KHZ
Type VOR Name Paro Frequency 108400 KHZ
Airport Weather Information & NOTAM
ADDS - METARS form results

(0623 UTC 03 December 2021)
Data provider http://aviationweather.gov/metar/data/
 
METAR text: VQPR 030600Z 16005KT 9999 NSC 15/03 Q1024
Conditions at: VQPR (PARO , BT) observed 0600 UTC 03 December 2021
Temperature: 15.0°C (59°F)
Dewpoint: 3.0°C (37°F) [RH = 44%]
Pressure (altimeter): 30.24 inches Hg (1024.0 mb)
Winds: from the SSE (160 degrees) at 6 MPH (5 knots; 2.6 m/s)
Visibility: 6 or more miles (10+ km)
Ceiling: at least 12,000 feet AGL
Clouds: sky clear below 12,000 feet AGL
Weather: no significant weather observed at this time

METAR text: VQPR 030530Z VRB02KT 9999 NSC 13/04 Q1025
Conditions at: VQPR (PARO , BT) observed 0530 UTC 03 December 2021
Temperature: 13.0°C (55°F)
Dewpoint: 4.0°C (39°F) [RH = 54%]
Pressure (altimeter): 30.27 inches Hg (1025.0 mb)
Winds: variable direction winds at 2 MPH (2 knots; 1.0 m/s)
Visibility: 6 or more miles (10+ km)
Ceiling: at least 12,000 feet AGL
Clouds: sky clear below 12,000 feet AGL
Weather: no significant weather observed at this time